Flight Track Log - Related Links

Times and Time Zones

All times are in EDT time to prevent confusion due to time zone crossing. See the TAM3194 flight status page for this flight to view local times or setup timezone preferences in your user account.

Time Position Orientation Groundspeed Altitude Reporting Facility
EDT Latitude Longitude Course Direction KTS MPH feet Rate Location/Type
Thu 11:56:00 AM -21.5370 -41.6537 46° Northeast  Level Estimated
Thu 11:57:00 AM -21.4858 -41.5983 45° Northeast  Level Estimated
Thu 11:58:00 AM -21.4347 -41.5430 45° Northeast  Level Estimated
Thu 11:59:00 AM -21.3835 -41.4877 45° Northeast  Level Estimated
Thu 12:00:00 PM -21.3323 -41.4325 45° Northeast  Level Estimated
Thu 12:01:00 PM -21.2811 -41.3773 45° Northeast  Level Estimated
Thu 12:02:00 PM -21.2299 -41.3222 45° Northeast  Level Estimated
Thu 12:03:00 PM -21.1787 -41.2671 45° Northeast  Level Estimated
Thu 12:04:00 PM -21.1274 -41.2120 45° Northeast  Level Estimated
Thu 12:05:00 PM -21.0761 -41.1569 45° Northeast  Level Estimated
Thu 12:06:00 PM -21.0248 -41.1019 45° Northeast  Level Estimated
Thu 12:07:00 PM -20.9735 -41.0470 45° Northeast  Level Estimated
Thu 12:08:00 PM -20.9222 -40.9921 45° Northeast  Level Estimated
Thu 12:09:00 PM -20.8708 -40.9372 45° Northeast  Level Estimated
Thu 12:10:00 PM -20.8195 -40.8823 45° Northeast  Level Estimated
Thu 12:11:00 PM -20.7681 -40.8275 45° Northeast  Level Estimated
Thu 12:12:00 PM -20.7167 -40.7727 45° Northeast  Level Estimated
Thu 12:13:00 PM -20.6653 -40.7180 45° Northeast  Level Estimated
Thu 12:14:00 PM -20.6139 -40.6633 45° Northeast  Level Estimated
Thu 12:15:00 PM -20.5624 -40.6086 45° Northeast  Level Estimated
Thu 12:16:00 PM -20.5109 -40.5540 45° Northeast  Level Estimated
Thu 12:17:00 PM -20.4594 -40.4994 45° Northeast  Level Estimated
Thu 12:18:00 PM -20.4079 -40.4449 45° Northeast  Level Estimated
Thu 12:19:00 PM -20.3564 -40.3903 45° Northeast  Level Estimated
Thu 12:20:00 PM -20.3049 -40.3359 45° Northeast  Level Estimated
Thu 12:21:00 PM -20.2581 -40.2864 45° Northeast  Level Estimated
Thu 12:22:00 PM -20.2581 -40.2864 13° North  Level Estimated
Thu 12:23:00 PM -20.2581 -40.2864 13° North  Level Estimated
Thu 12:24:00 PM -20.2581 -40.2864 13° North  Level Estimated
Thu 12:25:00 PM -20.2581 -40.2864 13° North  Level Estimated
Thu 12:26:00 PM -20.2581 -40.2864 13° North  Level Estimated
Thu 12:27:00 PM -20.2581 -40.2864 13° North  Level Estimated
Thu 12:28:00 PM -20.2581 -40.2864 13° North  Level Estimated
Thu 12:29:00 PM -20.2581 -40.2864 13° North  Level Estimated
Thu 12:30:00 PM -20.2581 -40.2864 13° North  Level Estimated
Thu 12:31:00 PM -20.2581 -40.2864 13° North  Level Estimated
Thu 12:32:00 PM -20.2581 -40.2864 13° North  Level Estimated
Thu 12:33:00 PM -20.2581 -40.2864 13° North  Level Estimated
Thu 12:34:00 PM -20.2581 -40.2864 13° North  Level Estimated
Thu 12:35:00 PM -20.2581 -40.2864 13° North  Level Estimated
Thu 12:36:00 PM -20.2581 -40.2864 13° North  Level Estimated
Thu 12:37:00 PM -20.2581 -40.2864 13° North  Level Estimated

Login

Don't have an account? Register now (free) for customized features, flight alerts, and more!